New Philadelphia, OH

5:40 AM EDT on June 02, 2015 (GMT -0400)
Akron-Canton Regional | | Change Station
CLOSE
Current Station
Airport
Location: Akron Canton,
Elevation: 1237 ft
Nearby Weather Stations

Elev 1237 ft 40.92 °N, 81.44 °W | Updated 49 minutes ago

Partly Cloudy
Partly Cloudy
52 °F
Feels Like 52 °F
N
7
Wind Variable Wind from NE

Today
High -- | Low -- °F
--% Chance of Precip.
Yesterday
High -- | Low -- °F
Precip. -- in
5:57 AM 8:50 PM
Full, 100% visible
Pressure 30.13 in
Visibility 10.0 miles
Clouds Overcast 1300 ft
Dew Point 47 °F
Humidity 83%
Rainfall 0.00 in
Snow Depth Not available.
UV 0 out of 12
Pollen 5.60 out of 12
Air Quality Not available.
Flu Activity Sporadic
METAR KCAK 020851Z 04006KT 10SM OVC013 11/08 A3012 RMK AO2 SLP201 T01110083 58009

More Conditions Fewer Conditions

Pressure 30.13 in
Visibility 10.0 miles
Clouds Overcast 1300 ft
Dew Point 47 °F
Humidity 83%
Rainfall 0.00 in
Snow Depth Not available.
UV 0 out of 12
Pollen 5.60 out of 12
Air Quality Not available.
Flu Activity Sporadic
METAR KCAK 020851Z 04006KT 10SM OVC013 11/08 A3012 RMK AO2 SLP201 T01110083 58009

More Conditions Fewer Conditions

10-Day Weather Forecast

Almanac

Astronomy

Jun. 02, 2015 Rise Set
Actual Time
Civil Twilight
Nautical Twilight
Astronomical Twilight
Moon
Length of Visible Light
Length of Day
Tomorrow will be .
, % of the Moon is Illuminated

Today's Extremes

State Highs State Lows

Community

WunderPhotos

Upload Photos

1,825,901 photos uploaded!

WunderBlogs® & News

Nearby

Air Quality

  Air Quality AQ Index Pollutant
Not available.

Snow Depth

Station Depth Elevation

Earthquake Activity

City Distance Mag. Time & Date
Minimum magnitude displayed is 2.5.

Coastal Water Temperatures

Place Temperature

Stations

Nearby Weather Stations

Station Location Temp. Windchill Dew Point Humidity Wind Precip. Elev Updated Type